Time;durP1;ratioP1;P1;durP2;ratioP2;P2;SDS_P1;SDS_P2;PMS_P1;PMS_P2;Temp;Humidity;BMP_temperature;BMP_pressure;BME280_temperature;BME280_humidity;BME280_pressure;Samples;Min_cycle;Max_cycle;Signal;HPM_P1;HPM_P2
2023/09/05 00:01:12;;;;;;;6.95;2.90;;;;;;;;;;4985896;28;96198;-80
2023/09/05 00:03:40;;;;;;;8.32;2.80;;;;;;;;;;4989897;28;92893;-80
2023/09/05 00:06:10;;;;;;;;;;;;;;;;;;4993938;28;92234;-80
2023/09/05 00:08:38;;;;;;;9.00;2.65;;;;;;;;;;4964885;28;113431;-80
2023/09/05 00:11:05;;;;;;;9.07;2.70;;;;;;;;;;4991472;28;92729;-79
2023/09/05 00:13:31;;;;;;;7.68;2.80;;;;;;;;;;4980376;28;95807;-80
2023/09/05 00:15:58;;;;;;;7.20;2.58;;;;;;;;;;4972613;28;92950;-80
2023/09/05 00:18:24;;;;;;;5.85;2.70;;;;;;;;;;4990473;28;93066;-79
2023/09/05 00:20:55;;;;;;;5.70;2.70;;;;;;;;;;4990572;28;93772;-79
2023/09/05 00:23:25;;;;;;;10.02;2.97;;;;;;;;;;4991678;28;92528;-79
2023/09/05 00:25:52;;;;;;;6.03;2.90;;;;;;;;;;4990614;28;92429;-79
2023/09/05 00:28:19;;;;;;;6.45;2.80;;;;;;;;;;4989629;28;92664;-79
2023/09/05 00:30:45;;;;;;;7.18;2.70;;;;;;;;;;4962325;28;96039;-79
2023/09/05 00:33:12;;;;;;;5.88;2.72;;;;;;;;;;4987795;28;93338;-79
2023/09/05 00:35:39;;;;;;;6.10;2.70;;;;;;;;;;4982750;28;92578;-79
2023/09/05 00:38:05;;;;;;;5.18;2.75;;;;;;;;;;4971938;28;95941;-79
2023/09/05 00:40:32;;;;;;;6.35;3.20;;;;;;;;;;4982852;28;94382;-79
2023/09/05 00:42:58;;;;;;;5.70;2.80;;;;;;;;;;4983672;28;92536;-79
2023/09/05 00:45:25;;;;;;;5.85;2.90;;;;;;;;;;4979356;28;95880;-80
2023/09/05 00:47:52;;;;;;;5.55;2.95;;;;;;;;;;4969531;28;92517;-80
2023/09/05 00:50:20;;;;;;;8.68;2.85;;;;;;;;;;4984673;28;95650;-79
2023/09/05 00:52:46;;;;;;;5.57;2.58;;;;;;;;;;4974103;28;95924;-79
2023/09/05 00:55:13;;;;;;;5.82;2.78;;;;;;;;;;4990268;28;91762;-79
2023/09/05 00:57:41;;;;;;;6.55;2.65;;;;;;;;;;4989241;28;92741;-79
2023/09/05 01:00:09;;;;;;;6.43;2.85;;;;;;;;;;4977024;28;95383;-79
2023/09/05 01:02:35;;;;;;;6.13;2.60;;;;;;;;;;4971762;28;96256;-79
2023/09/05 01:05:04;;;;;;;5.55;2.90;;;;;;;;;;4997622;28;95356;-76
2023/09/05 01:07:34;;;;;;;6.03;2.90;;;;;;;;;;4980772;28;92522;-80
2023/09/05 01:10:03;;;;;;;8.63;2.85;;;;;;;;;;4988206;28;94452;-80
2023/09/05 01:12:30;;;;;;;7.82;3.38;;;;;;;;;;4982633;28;94973;-80
2023/09/05 01:14:56;;;;;;;7.70;3.15;;;;;;;;;;4996424;28;93656;-80
2023/09/05 01:17:23;;;;;;;7.95;3.22;;;;;;;;;;4985220;28;94925;-80
2023/09/05 01:19:53;;;;;;;6.63;2.92;;;;;;;;;;4998564;28;93516;-79
2023/09/05 01:22:38;;;;;;;7.22;2.92;;;;;;;;;;4991168;28;93251;-79
2023/09/05 01:25:06;;;;;;;6.50;2.78;;;;;;;;;;4960708;28;93139;-78
2023/09/05 01:27:32;;;;;;;5.70;2.63;;;;;;;;;;4971110;28;95504;-78
2023/09/05 01:29:59;;;;;;;5.97;2.85;;;;;;;;;;4971127;28;98098;-78
2023/09/05 01:32:26;;;;;;;6.32;3.08;;;;;;;;;;4968225;28;93148;-78
2023/09/05 01:34:54;;;;;;;5.93;2.80;;;;;;;;;;4953868;28;92797;-78
2023/09/05 01:37:22;;;;;;;6.75;2.88;;;;;;;;;;4973649;28;93245;-78
2023/09/05 01:39:48;;;;;;;5.78;2.83;;;;;;;;;;4961020;28;94642;-78
2023/09/05 01:42:15;;;;;;;6.00;2.90;;;;;;;;;;4964872;28;93143;-78
2023/09/05 01:44:41;;;;;;;8.25;3.38;;;;;;;;;;4965783;28;92896;-78
2023/09/05 01:47:08;;;;;;;5.65;2.92;;;;;;;;;;4971674;28;94400;-79
2023/09/05 01:49:35;;;;;;;7.43;3.13;;;;;;;;;;4972511;28;92552;-79
2023/09/05 01:52:02;;;;;;;5.82;2.90;;;;;;;;;;4966116;28;95426;-79
2023/09/05 01:54:28;;;;;;;7.03;3.05;;;;;;;;;;4967681;28;92578;-79
2023/09/05 01:56:55;;;;;;;10.07;3.58;;;;;;;;;;4969149;28;92813;-79
2023/09/05 01:59:22;;;;;;;10.40;3.15;;;;;;;;;;4969168;28;94027;-79
2023/09/05 02:01:48;;;;;;;9.55;3.45;;;;;;;;;;4969553;28;92882;-79
2023/09/05 02:04:15;;;;;;;8.27;3.17;;;;;;;;;;4965869;28;93759;-80
2023/09/05 02:06:41;;;;;;;7.18;2.90;;;;;;;;;;4967224;28;95989;-79
2023/09/05 02:09:08;;;;;;;6.78;3.20;;;;;;;;;;4969655;28;92133;-79
2023/09/05 02:11:35;;;;;;;5.47;2.75;;;;;;;;;;4971716;28;93723;-80
2023/09/05 02:14:01;;;;;;;7.15;2.80;;;;;;;;;;4968869;28;93060;-79
2023/09/05 02:16:28;;;;;;;6.07;2.90;;;;;;;;;;4966695;28;94904;-79
2023/09/05 02:18:55;;;;;;;5.65;2.60;;;;;;;;;;4966472;28;95876;-79
2023/09/05 02:21:21;;;;;;;7.32;2.60;;;;;;;;;;4969146;28;93044;-79
2023/09/05 02:23:48;;;;;;;6.80;2.80;;;;;;;;;;4968386;28;93192;-79
2023/09/05 02:26:15;;;;;;;6.57;2.78;;;;;;;;;;4969081;28;93374;-79
2023/09/05 02:28:41;;;;;;;5.47;2.67;;;;;;;;;;4949702;28;95084;-80
2023/09/05 02:31:08;;;;;;;7.97;3.00;;;;;;;;;;4969550;28;92868;-79
2023/09/05 02:33:38;;;;;;;7.95;3.20;;;;;;;;;;4973009;28;94903;-79
2023/09/05 02:36:08;;;;;;;7.22;3.45;;;;;;;;;;4981788;28;94812;-79
2023/09/05 02:38:35;;;;;;;7.07;3.40;;;;;;;;;;4974269;28;93244;-79
2023/09/05 02:41:02;;;;;;;7.63;3.33;;;;;;;;;;4966837;28;95329;-79
2023/09/05 02:43:29;;;;;;;8.85;3.30;;;;;;;;;;4971799;28;95112;-80
2023/09/05 02:45:55;;;;;;;6.68;3.10;;;;;;;;;;4971646;28;92784;-80
2023/09/05 02:48:22;;;;;;;8.73;3.70;;;;;;;;;;4971515;28;92972;-80
2023/09/05 02:50:58;;;;;;;7.35;3.25;;;;;;;;;;4972161;28;93198;-80
2023/09/05 02:53:25;;;;;;;6.85;3.05;;;;;;;;;;4973035;28;94278;-80
2023/09/05 02:55:52;;;;;;;7.22;3.15;;;;;;;;;;4970527;28;92646;-80
2023/09/05 02:58:19;;;;;;;7.75;3.22;;;;;;;;;;4968634;28;92567;-80
2023/09/05 03:00:49;;;;;;;6.63;3.13;;;;;;;;;;4972271;28;92794;-80
2023/09/05 03:03:19;;;;;;;8.73;3.17;;;;;;;;;;4969653;28;95862;-80
2023/09/05 03:05:45;;;;;;;6.82;3.10;;;;;;;;;;4970334;28;95514;-79
2023/09/05 03:08:12;;;;;;;5.82;2.90;;;;;;;;;;4971772;28;92568;-79
2023/09/05 03:10:38;;;;;;;6.75;3.20;;;;;;;;;;4973754;28;93140;-79
2023/09/05 03:13:05;;;;;;;6.72;3.00;;;;;;;;;;4971159;28;93052;-78
2023/09/05 03:15:32;;;;;;;;;;;;;;;;;;4973994;28;92843;-78
2023/09/05 03:17:59;;;;;;;6.55;2.90;;;;;;;;;;4970143;28;106492;-78
2023/09/05 03:20:26;;;;;;;8.20;3.03;;;;;;;;;;4969097;28;92843;-78
2023/09/05 03:22:52;;;;;;;6.45;2.88;;;;;;;;;;4971530;28;92913;-78
2023/09/05 03:25:19;;;;;;;5.65;2.78;;;;;;;;;;4968802;28;96164;-79
2023/09/05 03:27:45;;;;;;;7.32;2.80;;;;;;;;;;4967235;28;92803;-78
2023/09/05 03:30:12;;;;;;;6.68;2.85;;;;;;;;;;4976197;28;94806;-79
2023/09/05 03:32:39;;;;;;;6.55;2.80;;;;;;;;;;4979710;28;94050;-79
2023/09/05 03:35:07;;;;;;;7.90;2.85;;;;;;;;;;4974739;28;92439;-78
2023/09/05 03:37:34;;;;;;;6.28;2.95;;;;;;;;;;4986083;28;94737;-79
2023/09/05 03:40:01;;;;;;;5.18;2.50;;;;;;;;;;4989587;28;92468;-79
2023/09/05 03:42:27;;;;;;;7.13;2.70;;;;;;;;;;4953768;28;95346;-79
2023/09/05 03:44:54;;;;;;;6.03;3.05;;;;;;;;;;4969369;28;94289;-79
2023/09/05 03:47:21;;;;;;;6.75;2.88;;;;;;;;;;4975607;28;91748;-79
2023/09/05 03:49:48;;;;;;;6.82;3.20;;;;;;;;;;4955326;28;93216;-79
2023/09/05 03:52:14;;;;;;;10.32;2.70;;;;;;;;;;4974887;28;93280;-79
2023/09/05 03:54:41;;;;;;;8.27;3.22;;;;;;;;;;4973692;28;94940;-78
2023/09/05 03:57:08;;;;;;;7.35;2.83;;;;;;;;;;4977340;28;97202;-79
2023/09/05 03:59:38;;;;;;;9.40;2.38;;;;;;;;;;4984644;28;97385;-79
2023/09/05 04:02:04;;;;;;;7.30;2.58;;;;;;;;;;4980676;28;95473;-78
2023/09/05 04:04:31;;;;;;;6.28;3.00;;;;;;;;;;4978009;28;94395;-79
2023/09/05 04:06:57;;;;;;;6.53;3.13;;;;;;;;;;4975601;28;92498;-79
2023/09/05 04:09:24;;;;;;;6.95;3.00;;;;;;;;;;4976245;28;94067;-79
2023/09/05 04:11:52;;;;;;;6.18;2.92;;;;;;;;;;4950885;28;94008;-79
2023/09/05 04:14:18;;;;;;;6.78;2.92;;;;;;;;;;4975086;28;92398;-79
2023/09/05 04:16:45;;;;;;;5.82;2.65;;;;;;;;;;4988568;28;94008;-80
2023/09/05 04:19:11;;;;;;;7.82;3.03;;;;;;;;;;4976567;28;95454;-79
2023/09/05 04:21:39;;;;;;;6.97;3.38;;;;;;;;;;4976995;28;92746;-80
2023/09/05 04:24:06;;;;;;;6.22;2.70;;;;;;;;;;4954637;28;96098;-80
2023/09/05 04:26:37;;;;;;;6.40;2.63;;;;;;;;;;4986640;28;92465;-80
2023/09/05 04:29:05;;;;;;;5.95;2.72;;;;;;;;;;4970320;28;95730;-80
2023/09/05 04:31:31;;;;;;;6.40;3.05;;;;;;;;;;4969117;28;93110;-79
2023/09/05 04:33:58;;;;;;;5.93;2.80;;;;;;;;;;4970716;28;92585;-80
2023/09/05 04:36:25;;;;;;;5.63;2.72;;;;;;;;;;4970795;28;95640;-79
2023/09/05 04:38:52;;;;;;;6.57;2.85;;;;;;;;;;4958293;28;92976;-79
2023/09/05 04:41:20;;;;;;;6.93;2.80;;;;;;;;;;4970597;28;92516;-79
2023/09/05 04:43:50;;;;;;;5.85;2.75;;;;;;;;;;4969522;28;95152;-79
2023/09/05 04:46:17;;;;;;;5.93;2.60;;;;;;;;;;4970562;28;92440;-80
2023/09/05 04:48:43;;;;;;;8.23;3.00;;;;;;;;;;4970068;28;93478;-80
2023/09/05 04:51:10;;;;;;;5.50;2.58;;;;;;;;;;4968961;28;95927;-80
2023/09/05 04:53:36;;;;;;;5.43;2.70;;;;;;;;;;4969936;28;92857;-77
2023/09/05 04:56:03;;;;;;;6.47;3.00;;;;;;;;;;4964214;28;95938;-78
2023/09/05 04:58:30;;;;;;;6.72;2.90;;;;;;;;;;4967774;28;93130;-78
2023/09/05 05:01:02;;;;;;;5.93;2.85;;;;;;;;;;4971172;28;91839;-79
2023/09/05 05:03:30;;;;;;;6.43;2.80;;;;;;;;;;4973438;28;92459;-78
2023/09/05 05:05:57;;;;;;;6.03;2.83;;;;;;;;;;4973148;28;92896;-78
2023/09/05 05:08:23;;;;;;;5.32;2.60;;;;;;;;;;4967013;28;94868;-78
2023/09/05 05:10:51;;;;;;;6.72;2.90;;;;;;;;;;4970458;28;93389;-78
2023/09/05 05:13:22;;;;;;;6.30;2.80;;;;;;;;;;4968438;28;92931;-79
2023/09/05 05:15:48;;;;;;;6.38;2.95;;;;;;;;;;4969676;28;92755;-79
2023/09/05 05:18:15;;;;;;;5.38;2.80;;;;;;;;;;4963091;28;92491;-79
2023/09/05 05:20:41;;;;;;;6.38;2.97;;;;;;;;;;4970227;28;92966;-78
2023/09/05 05:23:08;;;;;;;8.50;3.13;;;;;;;;;;4968252;28;92969;-79
2023/09/05 05:25:36;;;;;;;8.35;2.83;;;;;;;;;;4982744;28;93815;-80
2023/09/05 05:28:03;;;;;;;8.50;2.85;;;;;;;;;;4980521;28;93004;-80
2023/09/05 05:30:33;;;;;;;9.10;3.20;;;;;;;;;;4992831;28;94401;-80
2023/09/05 05:33:00;;;;;;;11.15;2.90;;;;;;;;;;4989338;28;94868;-79
2023/09/05 05:35:26;;;;;;;7.75;3.35;;;;;;;;;;4989837;28;94006;-80
2023/09/05 05:37:53;;;;;;;9.32;3.58;;;;;;;;;;4988685;28;94417;-80
2023/09/05 05:40:19;;;;;;;6.43;2.80;;;;;;;;;;4981779;28;92877;-80
2023/09/05 05:42:46;;;;;;;6.05;2.83;;;;;;;;;;4987546;28;92905;-80
2023/09/05 05:45:14;;;;;;;6.53;2.92;;;;;;;;;;4988942;28;93174;-80
2023/09/05 05:47:40;;;;;;;8.75;3.17;;;;;;;;;;4992875;28;92490;-80
2023/09/05 05:50:09;;;;;;;7.05;2.97;;;;;;;;;;4989327;28;92419;-80
2023/09/05 05:52:37;;;;;;;8.27;3.35;;;;;;;;;;4989843;28;92399;-80
2023/09/05 05:55:05;;;;;;;7.53;3.17;;;;;;;;;;4987870;28;92742;-80
2023/09/05 05:57:31;;;;;;;6.88;3.17;;;;;;;;;;4987601;28;95686;-79
2023/09/05 05:59:57;;;;;;;8.20;3.00;;;;;;;;;;4978488;28;92495;-80
2023/09/05 06:02:24;;;;;;;6.95;3.08;;;;;;;;;;4965072;28;96015;-80
2023/09/05 06:04:50;;;;;;;9.63;2.90;;;;;;;;;;4987575;28;93045;-80
2023/09/05 06:07:17;;;;;;;7.68;2.90;;;;;;;;;;4989832;28;92392;-80
2023/09/05 06:09:44;;;;;;;8.20;3.28;;;;;;;;;;4994976;28;92492;-80
2023/09/05 06:12:10;;;;;;;8.00;3.17;;;;;;;;;;4973408;28;92307;-80
2023/09/05 06:14:37;;;;;;;6.90;2.60;;;;;;;;;;4985046;28;93446;-82
2023/09/05 06:17:04;;;;;;;7.10;2.70;;;;;;;;;;4993117;28;92831;-82
2023/09/05 06:19:30;;;;;;;7.70;2.92;;;;;;;;;;4975056;28;93087;-82
2023/09/05 06:21:58;;;;;;;6.70;2.67;;;;;;;;;;4991275;28;94921;-83
2023/09/05 06:24:25;;;;;;;7.32;2.65;;;;;;;;;;4993021;28;94601;-81
2023/09/05 06:26:52;;;;;;;6.80;2.83;;;;;;;;;;4993230;28;92661;-81
2023/09/05 06:29:18;;;;;;;6.63;2.78;;;;;;;;;;4961889;28;95283;-81
2023/09/05 06:31:47;;;;;;;7.43;2.97;;;;;;;;;;4962991;28;93128;-81
2023/09/05 06:34:14;;;;;;;7.45;3.15;;;;;;;;;;4961662;28;92772;-81
2023/09/05 06:36:41;;;;;;;8.52;2.92;;;;;;;;;;4953311;28;94249;-81
2023/09/05 06:39:08;;;;;;;6.75;2.83;;;;;;;;;;4971499;28;91707;-81
2023/09/05 06:41:35;;;;;;;7.57;3.00;;;;;;;;;;4972920;28;92816;-81
2023/09/05 06:44:01;;;;;;;6.43;2.60;;;;;;;;;;4984321;28;94271;-82
2023/09/05 06:46:28;;;;;;;6.88;3.00;;;;;;;;;;4970216;28;94823;-81
2023/09/05 06:48:55;;;;;;;5.90;2.60;;;;;;;;;;4983633;28;97777;-81
2023/09/05 06:51:21;;;;;;;7.50;3.00;;;;;;;;;;4976455;28;92848;-80
2023/09/05 06:53:48;;;;;;;6.03;2.63;;;;;;;;;;4979748;28;92595;-79
2023/09/05 06:56:16;;;;;;;7.18;3.00;;;;;;;;;;4973912;28;93173;-80
2023/09/05 06:58:43;;;;;;;7.50;2.88;;;;;;;;;;4978535;28;92958;-80
2023/09/05 07:01:09;;;;;;;6.15;2.70;;;;;;;;;;4973384;28;92899;-82
2023/09/05 07:03:36;;;;;;;8.48;3.13;;;;;;;;;;4964642;28;92168;-79
2023/09/05 07:06:03;;;;;;;6.85;3.10;;;;;;;;;;4956653;28;92765;-79
2023/09/05 07:08:33;;;;;;;6.65;3.13;;;;;;;;;;4979192;28;94247;-79
2023/09/05 07:11:00;;;;;;;9.23;3.28;;;;;;;;;;4961395;28;95651;-79
2023/09/05 07:13:27;;;;;;;8.20;2.95;;;;;;;;;;4986828;28;92909;-79
2023/09/05 07:15:53;;;;;;;7.57;3.05;;;;;;;;;;4970497;28;93139;-79
2023/09/05 07:18:20;;;;;;;8.50;2.83;;;;;;;;;;4987355;28;92911;-79
2023/09/05 07:20:47;;;;;;;6.50;2.88;;;;;;;;;;4975645;28;95287;-80
2023/09/05 07:23:13;;;;;;;8.48;2.78;;;;;;;;;;4984473;28;93508;-80
2023/09/05 07:25:40;;;;;;;7.82;3.20;;;;;;;;;;4967943;28;93033;-78
2023/09/05 07:28:07;;;;;;;7.75;3.05;;;;;;;;;;4972721;28;92208;-79
2023/09/05 07:30:34;;;;;;;7.75;3.10;;;;;;;;;;4969146;28;93603;-79
2023/09/05 07:33:02;;;;;;;8.57;2.80;;;;;;;;;;4986812;28;92524;-79
2023/09/05 07:35:29;;;;;;;6.75;2.95;;;;;;;;;;4975263;28;95361;-79
2023/09/05 07:37:56;;;;;;;8.15;2.63;;;;;;;;;;4974621;28;93072;-79
2023/09/05 07:40:22;;;;;;;6.68;2.50;;;;;;;;;;4970750;28;93083;-79
2023/09/05 07:42:50;;;;;;;7.53;2.70;;;;;;;;;;4983919;28;93113;-79
2023/09/05 07:45:16;;;;;;;7.75;2.75;;;;;;;;;;4974385;28;92537;-79
2023/09/05 07:47:44;;;;;;;7.97;2.83;;;;;;;;;;4975726;28;92883;-80
2023/09/05 07:50:11;;;;;;;6.50;2.80;;;;;;;;;;4956381;28;93764;-80
2023/09/05 07:52:38;;;;;;;6.43;2.70;;;;;;;;;;4963354;28;91849;-80
2023/09/05 07:55:05;;;;;;;8.68;3.10;;;;;;;;;;4950805;28;92760;-79
2023/09/05 07:57:31;;;;;;;6.55;2.85;;;;;;;;;;4981469;28;93231;-79
2023/09/05 08:00:00;;;;;;;6.13;2.75;;;;;;;;;;4981188;28;95045;-78
2023/09/05 08:02:27;;;;;;;6.38;2.50;;;;;;;;;;4967414;28;93247;-80
2023/09/05 08:04:53;;;;;;;6.80;2.60;;;;;;;;;;4953692;28;92921;-79
2023/09/05 08:07:21;;;;;;;6.63;2.50;;;;;;;;;;4963843;28;93266;-79
2023/09/05 08:09:47;;;;;;;;;;;;;;;;;;4969508;28;93580;-80
2023/09/05 08:12:14;;;;;;;7.57;2.50;;;;;;;;;;4965943;28;115560;-80
2023/09/05 08:14:41;;;;;;;7.85;2.58;;;;;;;;;;4956524;28;92926;-80
2023/09/05 08:17:07;;;;;;;6.65;2.40;;;;;;;;;;4954498;28;92787;-80
2023/09/05 08:19:34;;;;;;;6.18;2.60;;;;;;;;;;4977461;28;92552;-80
2023/09/05 08:22:01;;;;;;;6.75;2.78;;;;;;;;;;4969947;28;93868;-79
2023/09/05 08:24:27;;;;;;;8.75;2.83;;;;;;;;;;4968505;28;94975;-79
2023/09/05 08:26:54;;;;;;;5.68;2.45;;;;;;;;;;4970740;28;95706;-79
2023/09/05 08:29:23;;;;;;;8.50;2.67;;;;;;;;;;4967936;28;93547;-79
2023/09/05 08:31:50;;;;;;;6.53;2.60;;;;;;;;;;4992456;28;92551;-79
2023/09/05 08:34:17;;;;;;;5.95;2.60;;;;;;;;;;5004944;28;93497;-79
2023/09/05 08:36:43;;;;;;;9.13;2.78;;;;;;;;;;4988119;28;93178;-80
2023/09/05 08:39:10;;;;;;;6.38;2.58;;;;;;;;;;4993542;28;92935;-79
2023/09/05 08:41:36;;;;;;;5.45;2.42;;;;;;;;;;4978872;28;95638;-79
2023/09/05 08:44:04;;;;;;;5.93;2.47;;;;;;;;;;4991024;28;92812;-80
2023/09/05 08:46:31;;;;;;;6.95;2.70;;;;;;;;;;4968708;28;92675;-80
2023/09/05 08:48:58;;;;;;;7.68;2.90;;;;;;;;;;4969532;28;98298;-80
2023/09/05 08:51:26;;;;;;;;;;;;;;;;;;4989981;28;93102;-79
2023/09/05 08:53:58;;;;;;;6.88;2.67;;;;;;;;;;4981550;28;104300;-80
2023/09/05 08:56:27;;;;;;;9.18;2.92;;;;;;;;;;4981501;28;94523;-79
2023/09/05 08:58:55;;;;;;;7.88;2.83;;;;;;;;;;4990195;28;92903;-79
2023/09/05 09:01:24;;;;;;;8.20;2.70;;;;;;;;;;4996781;28;93001;-79
2023/09/05 09:03:51;;;;;;;6.20;2.42;;;;;;;;;;4991364;28;92851;-79
2023/09/05 09:06:23;;;;;;;6.57;2.97;;;;;;;;;;4979759;28;92754;-79
2023/09/05 09:08:50;;;;;;;7.68;2.90;;;;;;;;;;4980424;28;93379;-80
2023/09/05 09:11:18;;;;;;;10.40;3.10;;;;;;;;;;4993589;28;92407;-79
2023/09/05 09:13:46;;;;;;;6.70;2.45;;;;;;;;;;4991321;28;94995;-80
2023/09/05 09:16:19;;;;;;;7.05;3.00;;;;;;;;;;5004119;28;93063;-80
2023/09/05 09:18:47;;;;;;;8.02;2.95;;;;;;;;;;5014455;28;92718;-81
2023/09/05 09:21:15;;;;;;;7.68;2.70;;;;;;;;;;4974347;28;92850;-81
2023/09/05 09:23:44;;;;;;;6.97;2.60;;;;;;;;;;4998196;28;92640;-81
2023/09/05 09:26:13;;;;;;;7.03;2.60;;;;;;;;;;4989499;28;92662;-82
2023/09/05 09:28:40;;;;;;;7.65;2.58;;;;;;;;;;4962177;28;96257;-81
2023/09/05 09:31:12;;;;;;;7.43;2.70;;;;;;;;;;4970223;28;92037;-82
2023/09/05 09:33:40;;;;;;;6.72;2.78;;;;;;;;;;4977433;28;92970;-81
2023/09/05 09:36:11;;;;;;;6.00;2.70;;;;;;;;;;4961364;28;94511;-82
2023/09/05 09:38:38;;;;;;;5.95;2.63;;;;;;;;;;4977610;28;94913;-82
2023/09/05 09:41:06;;;;;;;10.52;2.88;;;;;;;;;;4992805;28;95206;-82
2023/09/05 09:43:36;;;;;;;12.68;2.80;;;;;;;;;;4970708;28;93801;-81
2023/09/05 09:46:04;;;;;;;5.80;2.50;;;;;;;;;;4982105;28;92558;-81
2023/09/05 09:48:35;;;;;;;6.30;2.30;;;;;;;;;;5004738;28;95011;-81
2023/09/05 09:51:06;;;;;;;7.50;2.63;;;;;;;;;;4998829;28;92842;-82
2023/09/05 09:53:34;;;;;;;7.47;2.60;;;;;;;;;;5007613;28;93076;-81
2023/09/05 09:56:11;;;;;;;7.78;2.70;;;;;;;;;;4996993;28;91735;-81
2023/09/05 09:58:40;;;;;;;7.30;2.75;;;;;;;;;;5012990;28;92493;-82
2023/09/05 10:01:11;;;;;;;7.15;2.60;;;;;;;;;;4993072;28;92039;-83
2023/09/05 10:03:42;;;;;;;5.13;2.28;;;;;;;;;;4976619;28;97207;-82
2023/09/05 10:06:09;;;;;;;5.65;2.20;;;;;;;;;;5000757;28;92733;-80
2023/09/05 10:08:36;;;;;;;;;;;;;;;;;;4985696;28;92406;-80
2023/09/05 10:11:10;;;;;;;6.47;2.40;;;;;;;;;;4997751;28;92452;-80
2023/09/05 10:13:38;;;;;;;7.32;2.58;;;;;;;;;;5008985;28;92385;-80
2023/09/05 10:16:06;;;;;;;11.73;2.78;;;;;;;;;;4984445;28;96557;-81
2023/09/05 10:18:32;;;;;;;6.93;2.53;;;;;;;;;;5002034;28;92856;-81
2023/09/05 10:21:00;;;;;;;8.70;2.70;;;;;;;;;;4977063;28;94704;-81
2023/09/05 10:23:32;;;;;;;7.10;2.42;;;;;;;;;;4972486;28;92943;-80
2023/09/05 10:26:00;;;;;;;6.55;2.45;;;;;;;;;;4981345;28;93087;-79
2023/09/05 10:28:30;;;;;;;6.80;2.47;;;;;;;;;;4987983;28;94902;-80
2023/09/05 10:31:04;;;;;;;7.97;2.22;;;;;;;;;;4974196;28;93333;-80
2023/09/05 10:33:32;;;;;;;9.65;2.55;;;;;;;;;;4974846;28;93503;-81
2023/09/05 10:36:00;;;;;;;6.80;2.30;;;;;;;;;;4969405;28;93985;-81
2023/09/05 10:38:28;;;;;;;6.32;2.42;;;;;;;;;;4995765;28;92765;-81
2023/09/05 10:40:55;;;;;;;6.53;2.25;;;;;;;;;;4989134;28;92843;-81
2023/09/05 10:43:22;;;;;;;6.35;2.30;;;;;;;;;;4996513;28;92582;-81
2023/09/05 10:45:59;;;;;;;5.65;2.20;;;;;;;;;;4988382;28;92075;-81
2023/09/05 10:48:52;;;;;;;6.80;2.30;;;;;;;;;;4981937;28;92759;-80
2023/09/05 10:51:19;;;;;;;7.20;2.17;;;;;;;;;;4964026;28;93563;-81
2023/09/05 10:53:47;;;;;;;4.93;2.10;;;;;;;;;;4963653;28;94998;-81
2023/09/05 10:56:49;;;;;;;5.70;2.13;;;;;;;;;;4986491;28;93322;-81
2023/09/05 10:59:27;;;;;;;4.72;2.10;;;;;;;;;;4885178;28;92674;-81
2023/09/05 11:02:01;;;;;;;6.63;2.30;;;;;;;;;;4976469;28;94276;-81
2023/09/05 11:04:30;;;;;;;5.65;2.17;;;;;;;;;;5002704;28;94322;-81
2023/09/05 11:07:01;;;;;;;5.20;2.10;;;;;;;;;;4994417;28;92853;-80
2023/09/05 11:09:29;;;;;;;4.55;1.98;;;;;;;;;;5009808;28;92937;-81
2023/09/05 11:11:56;;;;;;;7.30;2.30;;;;;;;;;;5001097;28;91676;-81
2023/09/05 11:14:29;;;;;;;5.53;2.13;;;;;;;;;;5017704;28;92546;-81
2023/09/05 11:16:56;;;;;;;;;;;;;;;;;;4993370;28;93125;-81
2023/09/05 11:19:29;;;;;;;5.70;2.00;;;;;;;;;;4999318;28;95428;-81
2023/09/05 11:22:08;;;;;;;7.22;2.10;;;;;;;;;;4991926;28;95112;-81
2023/09/05 11:24:35;;;;;;;6.25;2.17;;;;;;;;;;4983548;28;93758;-81
2023/09/05 11:27:03;;;;;;;5.03;2.20;;;;;;;;;;4971621;28;92888;-82
2023/09/05 11:29:31;;;;;;;5.40;2.20;;;;;;;;;;4989497;28;92793;-81
2023/09/05 11:32:01;;;;;;;4.82;2.05;;;;;;;;;;4979738;28;93025;-81
2023/09/05 11:34:27;;;;;;;5.05;2.10;;;;;;;;;;4989652;28;92829;-81
2023/09/05 11:36:55;;;;;;;5.57;2.22;;;;;;;;;;4991213;28;93977;-82
2023/09/05 11:39:28;;;;;;;6.55;2.22;;;;;;;;;;4990556;28;92757;-81
2023/09/05 11:41:58;;;;;;;4.90;2.13;;;;;;;;;;4990786;28;93505;-80
2023/09/05 11:44:31;;;;;;;4.55;1.98;;;;;;;;;;4989770;28;96992;-80
2023/09/05 11:46:58;;;;;;;7.93;2.30;;;;;;;;;;4972103;28;92830;-81
2023/09/05 11:49:25;;;;;;;;;;;;;;;;;;4989253;28;94276;-80
2023/09/05 11:51:51;;;;;;;8.18;2.40;;;;;;;;;;4989277;28;93026;-80
2023/09/05 11:54:18;;;;;;;5.57;2.10;;;;;;;;;;4986105;28;92427;-81
2023/09/05 11:56:45;;;;;;;5.20;2.00;;;;;;;;;;4988151;28;92832;-80
2023/09/05 11:59:11;;;;;;;6.80;2.33;;;;;;;;;;4990652;28;93151;-81
2023/09/05 12:01:38;;;;;;;6.70;2.28;;;;;;;;;;4990496;28;93074;-81
2023/09/05 12:04:06;;;;;;;6.05;2.30;;;;;;;;;;4981284;28;92438;-81
2023/09/05 12:06:33;;;;;;;9.00;2.20;;;;;;;;;;4975668;28;92634;-81
2023/09/05 12:09:00;;;;;;;4.20;1.90;;;;;;;;;;4985953;28;94892;-81
2023/09/05 12:11:27;;;;;;;6.43;2.05;;;;;;;;;;4988015;28;93428;-80
2023/09/05 12:13:57;;;;;;;6.50;2.30;;;;;;;;;;4983154;28;93006;-80
2023/09/05 12:16:23;;;;;;;5.20;1.90;;;;;;;;;;4964957;28;93570;-81
2023/09/05 12:19:03;;;;;;;4.97;2.00;;;;;;;;;;4960874;28;93249;-82
2023/09/05 12:21:40;;;;;;;6.70;2.35;;;;;;;;;;4997490;28;92794;-83
2023/09/05 12:24:18;;;;;;;7.03;2.20;;;;;;;;;;4983954;28;92435;-83
2023/09/05 12:26:45;;;;;;;4.72;2.00;;;;;;;;;;4981207;28;91700;-83
2023/09/05 12:29:11;;;;;;;4.60;1.90;;;;;;;;;;4996431;28;92550;-84
2023/09/05 12:31:38;;;;;;;6.13;2.10;;;;;;;;;;4992638;28;93116;-82
2023/09/05 12:34:05;;;;;;;5.13;2.15;;;;;;;;;;4988605;28;94931;-83
2023/09/05 12:36:33;;;;;;;5.25;2.13;;;;;;;;;;4991322;28;95368;-83
2023/09/05 12:39:01;;;;;;;7.72;1.92;;;;;;;;;;4982581;28;92545;-83
2023/09/05 12:41:27;;;;;;;6.28;2.10;;;;;;;;;;4970350;28;92484;-84
2023/09/05 12:43:55;;;;;;;8.25;1.77;;;;;;;;;;4978014;28;94744;-84
2023/09/05 12:46:21;;;;;;;5.97;2.00;;;;;;;;;;4971582;28;92436;-84
2023/09/05 12:48:53;;;;;;;5.95;1.80;;;;;;;;;;4989849;28;92656;-83
2023/09/05 12:51:20;;;;;;;6.38;2.10;;;;;;;;;;4976160;28;93556;-84
2023/09/05 12:53:49;;;;;;;5.05;1.80;;;;;;;;;;4997731;28;92412;-83
2023/09/05 12:56:16;;;;;;;6.07;2.00;;;;;;;;;;4996491;28;92878;-83
2023/09/05 12:58:43;;;;;;;5.38;1.80;;;;;;;;;;4997137;28;96327;-83
2023/09/05 13:01:10;;;;;;;4.68;1.73;;;;;;;;;;4994226;28;92546;-83
2023/09/05 13:03:37;;;;;;;4.93;2.00;;;;;;;;;;4988478;28;93001;-84
2023/09/05 13:06:03;;;;;;;5.28;1.90;;;;;;;;;;5005870;28;93221;-85
2023/09/05 13:08:33;;;;;;;7.25;1.95;;;;;;;;;;4996436;28;92398;-84
2023/09/05 13:11:00;;;;;;;4.80;1.75;;;;;;;;;;5000016;28;92528;-85
2023/09/05 13:13:26;;;;;;;5.65;1.95;;;;;;;;;;5002164;28;92507;-85
2023/09/05 13:15:53;;;;;;;4.00;1.98;;;;;;;;;;4995136;28;92843;-84
2023/09/05 13:18:19;;;;;;;4.82;2.00;;;;;;;;;;4996774;28;93039;-83
2023/09/05 13:20:46;;;;;;;3.22;1.60;;;;;;;;;;4993596;28;92476;-84
2023/09/05 13:23:13;;;;;;;5.78;1.65;;;;;;;;;;4970263;28;94970;-84
2023/09/05 13:25:40;;;;;;;3.55;1.60;;;;;;;;;;4993724;28;92946;-84
2023/09/05 13:28:07;;;;;;;5.90;2.00;;;;;;;;;;4972054;28;92728;-84
2023/09/05 13:30:34;;;;;;;3.63;1.67;;;;;;;;;;4967376;28;95824;-84
2023/09/05 13:33:01;;;;;;;4.45;2.15;;;;;;;;;;4968374;28;92520;-83
2023/09/05 13:35:31;;;;;;;8.32;2.35;;;;;;;;;;4958512;28;92830;-84
2023/09/05 13:37:58;;;;;;;5.80;2.00;;;;;;;;;;4957307;28;92975;-83
2023/09/05 13:40:24;;;;;;;4.97;2.05;;;;;;;;;;4969974;28;91787;-83
2023/09/05 13:42:51;;;;;;;5.05;2.08;;;;;;;;;;4969612;28;93782;-83
2023/09/05 13:45:17;;;;;;;6.70;2.25;;;;;;;;;;4970253;28;92981;-83
2023/09/05 13:47:44;;;;;;;6.35;2.20;;;;;;;;;;4960960;28;94842;-84
2023/09/05 13:50:11;;;;;;;5.00;1.98;;;;;;;;;;4971907;28;92992;-83
2023/09/05 13:52:37;;;;;;;6.82;2.10;;;;;;;;;;4969264;28;92535;-85
2023/09/05 13:55:04;;;;;;;6.93;2.00;;;;;;;;;;4968444;28;93905;-84
2023/09/05 13:57:32;;;;;;;7.75;2.03;;;;;;;;;;4969885;28;93230;-86
2023/09/05 13:59:59;;;;;;;5.45;1.85;;;;;;;;;;4969978;28;92458;-85
2023/09/05 14:02:27;;;;;;;5.32;1.92;;;;;;;;;;4970067;28;92490;-84
2023/09/05 14:04:53;;;;;;;5.55;2.40;;;;;;;;;;4968418;28;92289;-85
2023/09/05 14:07:20;;;;;;;7.05;2.03;;;;;;;;;;4969804;28;92521;-85
2023/09/05 14:09:46;;;;;;;5.35;1.90;;;;;;;;;;4972301;28;92503;-84
2023/09/05 14:12:17;;;;;;;4.85;1.80;;;;;;;;;;4967708;28;94788;-84
2023/09/05 14:14:45;;;;;;;6.82;1.80;;;;;;;;;;4968928;28;95174;-85
2023/09/05 14:17:11;;;;;;;5.30;1.80;;;;;;;;;;4967133;28;93210;-84
2023/09/05 14:19:38;;;;;;;4.28;1.85;;;;;;;;;;4969733;28;92441;-86
2023/09/05 14:22:05;;;;;;;6.40;2.08;;;;;;;;;;4969733;28;93299;-84
2023/09/05 14:24:31;;;;;;;5.35;1.83;;;;;;;;;;4967570;28;92524;-84
2023/09/05 14:26:58;;;;;;;6.32;2.00;;;;;;;;;;4971406;28;92866;-85
2023/09/05 14:29:24;;;;;;;;;;;;;;;;;;4977006;28;94418;-86
2023/09/05 14:31:51;;;;;;;4.00;1.80;;;;;;;;;;4982197;28;93132;-86
2023/09/05 14:34:18;;;;;;;6.97;2.03;;;;;;;;;;4972930;28;92805;-85
2023/09/05 14:36:44;;;;;;;4.35;1.90;;;;;;;;;;4966307;28;95527;-84
2023/09/05 14:39:11;;;;;;;4.63;2.00;;;;;;;;;;4993745;28;92460;-85
2023/09/05 14:41:38;;;;;;;4.80;1.70;;;;;;;;;;4995236;28;93285;-87
2023/09/05 14:44:05;;;;;;;3.60;1.73;;;;;;;;;;4965381;28;93203;-85
2023/09/05 14:46:32;;;;;;;10.57;1.95;;;;;;;;;;4987807;28;92398;-84
2023/09/05 14:48:59;;;;;;;4.82;1.80;;;;;;;;;;4984392;28;93318;-80